sensor_id;sensor_type;location;lat;lon;timestamp;temperature;humidity
4578;DHT22;2301;47.354;8.528;2023-12-04T00:01:43;9.40;86.70
4578;DHT22;2301;47.354;8.528;2023-12-04T00:04:11;9.50;86.50
4578;DHT22;2301;47.354;8.528;2023-12-04T00:06:38;9.50;85.50
4578;DHT22;2301;47.354;8.528;2023-12-04T00:09:06;9.50;84.30
4578;DHT22;2301;47.354;8.528;2023-12-04T00:11:33;9.40;83.50
4578;DHT22;2301;47.354;8.528;2023-12-04T00:14:00;9.40;83.30
4578;DHT22;2301;47.354;8.528;2023-12-04T00:16:27;9.40;84.80
4578;DHT22;2301;47.354;8.528;2023-12-04T00:18:54;9.40;84.10
4578;DHT22;2301;47.354;8.528;2023-12-04T00:21:21;9.40;83.90
4578;DHT22;2301;47.354;8.528;2023-12-04T00:23:48;9.40;83.50
4578;DHT22;2301;47.354;8.528;2023-12-04T00:26:17;9.50;84.20
4578;DHT22;2301;47.354;8.528;2023-12-04T00:28:44;9.50;83.60
4578;DHT22;2301;47.354;8.528;2023-12-04T00:31:11;9.60;83.90
4578;DHT22;2301;47.354;8.528;2023-12-04T00:33:37;9.60;83.40
4578;DHT22;2301;47.354;8.528;2023-12-04T00:36:05;9.60;83.30
4578;DHT22;2301;47.354;8.528;2023-12-04T00:38:32;9.60;82.70
4578;DHT22;2301;47.354;8.528;2023-12-04T00:40:59;9.60;82.40
4578;DHT22;2301;47.354;8.528;2023-12-04T00:43:27;9.60;82.30
4578;DHT22;2301;47.354;8.528;2023-12-04T00:45:54;9.60;82.40
4578;DHT22;2301;47.354;8.528;2023-12-04T00:48:21;9.60;82.10
4578;DHT22;2301;47.354;8.528;2023-12-04T00:50:48;9.60;81.90
4578;DHT22;2301;47.354;8.528;2023-12-04T00:53:15;9.50;80.70
4578;DHT22;2301;47.354;8.528;2023-12-04T00:55:42;9.50;81.10
4578;DHT22;2301;47.354;8.528;2023-12-04T00:58:07;9.50;81.10
4578;DHT22;2301;47.354;8.528;2023-12-04T01:00:36;9.60;81.40
4578;DHT22;2301;47.354;8.528;2023-12-04T01:03:03;9.50;81.30
4578;DHT22;2301;47.354;8.528;2023-12-04T01:05:30;9.60;81.40
4578;DHT22;2301;47.354;8.528;2023-12-04T01:07:57;9.60;81.30
4578;DHT22;2301;47.354;8.528;2023-12-04T01:10:24;9.60;81.40
4578;DHT22;2301;47.354;8.528;2023-12-04T01:12:51;9.60;81.30
4578;DHT22;2301;47.354;8.528;2023-12-04T01:15:17;9.60;81.40
4578;DHT22;2301;47.354;8.528;2023-12-04T01:17:46;9.70;80.70
4578;DHT22;2301;47.354;8.528;2023-12-04T01:20:13;9.60;77.50
4578;DHT22;2301;47.354;8.528;2023-12-04T01:22:40;9.50;80.00
4578;DHT22;2301;47.354;8.528;2023-12-04T01:25:08;9.60;81.00
4578;DHT22;2301;47.354;8.528;2023-12-04T01:27:37;9.60;80.40
4578;DHT22;2301;47.354;8.528;2023-12-04T01:30:13;9.60;80.30
4578;DHT22;2301;47.354;8.528;2023-12-04T01:32:42;9.50;79.10
4578;DHT22;2301;47.354;8.528;2023-12-04T01:35:10;9.50;79.20
4578;DHT22;2301;47.354;8.528;2023-12-04T01:37:37;9.40;78.50
4578;DHT22;2301;47.354;8.528;2023-12-04T01:40:06;9.30;77.60
4578;DHT22;2301;47.354;8.528;2023-12-04T01:42:33;9.20;77.70
4578;DHT22;2301;47.354;8.528;2023-12-04T01:45:00;9.10;77.80
4578;DHT22;2301;47.354;8.528;2023-12-04T01:47:27;9.00;78.10
4578;DHT22;2301;47.354;8.528;2023-12-04T01:49:54;9.10;80.30
4578;DHT22;2301;47.354;8.528;2023-12-04T01:52:22;9.20;81.20
4578;DHT22;2301;47.354;8.528;2023-12-04T01:54:49;9.30;79.70
4578;DHT22;2301;47.354;8.528;2023-12-04T01:57:16;9.30;80.20
4578;DHT22;2301;47.354;8.528;2023-12-04T01:59:43;9.30;80.00
4578;DHT22;2301;47.354;8.528;2023-12-04T02:02:11;9.40;79.00
4578;DHT22;2301;47.354;8.528;2023-12-04T02:04:38;9.40;78.70
4578;DHT22;2301;47.354;8.528;2023-12-04T02:07:05;9.30;78.30
4578;DHT22;2301;47.354;8.528;2023-12-04T02:09:33;9.40;79.60
4578;DHT22;2301;47.354;8.528;2023-12-04T02:12:00;9.50;80.10
4578;DHT22;2301;47.354;8.528;2023-12-04T02:14:27;9.50;79.20
4578;DHT22;2301;47.354;8.528;2023-12-04T02:16:56;9.60;79.30
4578;DHT22;2301;47.354;8.528;2023-12-04T02:19:24;9.60;79.50
4578;DHT22;2301;47.354;8.528;2023-12-04T02:21:51;9.70;79.80
4578;DHT22;2301;47.354;8.528;2023-12-04T02:24:20;9.70;78.90
4578;DHT22;2301;47.354;8.528;2023-12-04T02:26:49;9.70;78.40
4578;DHT22;2301;47.354;8.528;2023-12-04T02:29:23;9.60;76.60
4578;DHT22;2301;47.354;8.528;2023-12-04T02:31:51;9.60;77.80
4578;DHT22;2301;47.354;8.528;2023-12-04T02:34:20;9.60;78.40
4578;DHT22;2301;47.354;8.528;2023-12-04T02:36:48;9.60;77.50
4578;DHT22;2301;47.354;8.528;2023-12-04T02:39:16;9.60;77.90
4578;DHT22;2301;47.354;8.528;2023-12-04T02:41:45;9.70;78.70
4578;DHT22;2301;47.354;8.528;2023-12-04T02:44:12;9.70;79.00
4578;DHT22;2301;47.354;8.528;2023-12-04T02:46:39;9.70;77.90
4578;DHT22;2301;47.354;8.528;2023-12-04T02:49:05;9.70;78.20
4578;DHT22;2301;47.354;8.528;2023-12-04T02:51:32;9.80;78.20
4578;DHT22;2301;47.354;8.528;2023-12-04T02:53:59;9.80;77.90
4578;DHT22;2301;47.354;8.528;2023-12-04T02:56:26;9.90;77.90
4578;DHT22;2301;47.354;8.528;2023-12-04T02:58:55;9.90;77.60
4578;DHT22;2301;47.354;8.528;2023-12-04T03:01:22;9.90;76.80
4578;DHT22;2301;47.354;8.528;2023-12-04T03:03:49;9.80;76.30
4578;DHT22;2301;47.354;8.528;2023-12-04T03:06:16;9.70;74.80
4578;DHT22;2301;47.354;8.528;2023-12-04T03:08:42;9.70;76.60
4578;DHT22;2301;47.354;8.528;2023-12-04T03:11:09;9.60;76.90
4578;DHT22;2301;47.354;8.528;2023-12-04T03:13:36;9.70;77.10
4578;DHT22;2301;47.354;8.528;2023-12-04T03:16:06;9.80;77.80
4578;DHT22;2301;47.354;8.528;2023-12-04T03:18:33;9.70;76.90
4578;DHT22;2301;47.354;8.528;2023-12-04T03:21:01;9.80;77.60
4578;DHT22;2301;47.354;8.528;2023-12-04T03:23:32;9.80;77.10
4578;DHT22;2301;47.354;8.528;2023-12-04T03:26:00;9.90;77.30
4578;DHT22;2301;47.354;8.528;2023-12-04T03:28:28;9.80;76.20
4578;DHT22;2301;47.354;8.528;2023-12-04T03:30:55;9.80;76.10
4578;DHT22;2301;47.354;8.528;2023-12-04T03:33:23;9.90;77.00
4578;DHT22;2301;47.354;8.528;2023-12-04T03:35:50;9.90;76.60
4578;DHT22;2301;47.354;8.528;2023-12-04T03:38:17;10.00;74.70
4578;DHT22;2301;47.354;8.528;2023-12-04T03:40:44;9.90;76.10
4578;DHT22;2301;47.354;8.528;2023-12-04T03:43:11;9.90;76.30
4578;DHT22;2301;47.354;8.528;2023-12-04T03:45:38;9.90;75.50
4578;DHT22;2301;47.354;8.528;2023-12-04T03:48:05;9.90;75.80
4578;DHT22;2301;47.354;8.528;2023-12-04T03:50:33;9.90;75.70
4578;DHT22;2301;47.354;8.528;2023-12-04T03:53:00;9.90;75.10
4578;DHT22;2301;47.354;8.528;2023-12-04T03:55:28;9.90;75.70
4578;DHT22;2301;47.354;8.528;2023-12-04T03:57:55;9.90;76.40
4578;DHT22;2301;47.354;8.528;2023-12-04T04:00:23;9.90;77.00
4578;DHT22;2301;47.354;8.528;2023-12-04T04:02:50;10.00;75.20
4578;DHT22;2301;47.354;8.528;2023-12-04T04:05:17;10.00;75.40
4578;DHT22;2301;47.354;8.528;2023-12-04T04:07:46;10.00;74.40
4578;DHT22;2301;47.354;8.528;2023-12-04T04:10:13;9.90;75.40
4578;DHT22;2301;47.354;8.528;2023-12-04T04:12:39;9.90;74.90
4578;DHT22;2301;47.354;8.528;2023-12-04T04:15:07;9.90;74.80
4578;DHT22;2301;47.354;8.528;2023-12-04T04:17:34;9.90;75.70
4578;DHT22;2301;47.354;8.528;2023-12-04T04:20:01;9.90;74.30
4578;DHT22;2301;47.354;8.528;2023-12-04T04:22:28;9.90;74.40
4578;DHT22;2301;47.354;8.528;2023-12-04T04:24:56;9.90;75.40
4578;DHT22;2301;47.354;8.528;2023-12-04T04:27:23;9.90;74.70
4578;DHT22;2301;47.354;8.528;2023-12-04T04:29:50;9.90;74.90
4578;DHT22;2301;47.354;8.528;2023-12-04T04:32:18;9.90;75.40
4578;DHT22;2301;47.354;8.528;2023-12-04T04:34:45;9.90;75.50
4578;DHT22;2301;47.354;8.528;2023-12-04T04:37:12;9.90;75.00
4578;DHT22;2301;47.354;8.528;2023-12-04T04:39:40;9.90;74.90
4578;DHT22;2301;47.354;8.528;2023-12-04T04:42:08;9.90;75.00
4578;DHT22;2301;47.354;8.528;2023-12-04T04:44:35;9.90;74.30
4578;DHT22;2301;47.354;8.528;2023-12-04T04:47:02;9.90;74.10
4578;DHT22;2301;47.354;8.528;2023-12-04T04:49:29;9.90;74.40
4578;DHT22;2301;47.354;8.528;2023-12-04T04:51:56;9.90;74.80
4578;DHT22;2301;47.354;8.528;2023-12-04T04:54:23;10.00;74.10
4578;DHT22;2301;47.354;8.528;2023-12-04T04:56:49;10.00;73.60
4578;DHT22;2301;47.354;8.528;2023-12-04T04:59:18;9.90;74.10
4578;DHT22;2301;47.354;8.528;2023-12-04T05:01:45;10.00;73.60
4578;DHT22;2301;47.354;8.528;2023-12-04T05:04:12;10.00;73.00
4578;DHT22;2301;47.354;8.528;2023-12-04T05:06:39;9.90;73.60
4578;DHT22;2301;47.354;8.528;2023-12-04T05:09:06;10.00;73.40
4578;DHT22;2301;47.354;8.528;2023-12-04T05:11:33;9.90;73.70
4578;DHT22;2301;47.354;8.528;2023-12-04T05:14:00;10.00;73.20
4578;DHT22;2301;47.354;8.528;2023-12-04T05:16:28;9.90;73.80
4578;DHT22;2301;47.354;8.528;2023-12-04T05:18:55;10.00;73.00
4578;DHT22;2301;47.354;8.528;2023-12-04T05:21:22;9.90;73.50
4578;DHT22;2301;47.354;8.528;2023-12-04T05:23:49;9.80;73.10
4578;DHT22;2301;47.354;8.528;2023-12-04T05:26:16;9.80;73.90
4578;DHT22;2301;47.354;8.528;2023-12-04T05:28:43;9.80;73.90
4578;DHT22;2301;47.354;8.528;2023-12-04T05:31:10;9.90;74.40
4578;DHT22;2301;47.354;8.528;2023-12-04T05:33:38;9.90;73.20
4578;DHT22;2301;47.354;8.528;2023-12-04T05:36:05;9.80;73.20
4578;DHT22;2301;47.354;8.528;2023-12-04T05:38:33;9.80;73.80
4578;DHT22;2301;47.354;8.528;2023-12-04T05:41:00;9.80;71.80
4578;DHT22;2301;47.354;8.528;2023-12-04T05:43:27;9.80;73.90
4578;DHT22;2301;47.354;8.528;2023-12-04T05:45:54;9.80;73.70
4578;DHT22;2301;47.354;8.528;2023-12-04T05:48:21;9.90;73.60
4578;DHT22;2301;47.354;8.528;2023-12-04T05:50:49;9.80;72.60
4578;DHT22;2301;47.354;8.528;2023-12-04T05:53:16;9.70;71.30
4578;DHT22;2301;47.354;8.528;2023-12-04T05:55:43;9.60;71.50
4578;DHT22;2301;47.354;8.528;2023-12-04T05:58:11;9.20;66.30
4578;DHT22;2301;47.354;8.528;2023-12-04T06:00:41;8.60;59.10
4578;DHT22;2301;47.354;8.528;2023-12-04T06:03:08;7.90;57.00
4578;DHT22;2301;47.354;8.528;2023-12-04T06:05:35;7.30;56.20
4578;DHT22;2301;47.354;8.528;2023-12-04T06:08:04;6.70;56.10
4578;DHT22;2301;47.354;8.528;2023-12-04T06:10:31;6.20;56.20
4578;DHT22;2301;47.354;8.528;2023-12-04T06:13:00;5.90;57.10
4578;DHT22;2301;47.354;8.528;2023-12-04T06:15:28;5.50;56.80
4578;DHT22;2301;47.354;8.528;2023-12-04T06:17:55;5.20;57.20
4578;DHT22;2301;47.354;8.528;2023-12-04T06:20:22;4.90;57.50
4578;DHT22;2301;47.354;8.528;2023-12-04T06:22:54;4.60;57.90
4578;DHT22;2301;47.354;8.528;2023-12-04T06:25:30;4.30;58.10
4578;DHT22;2301;47.354;8.528;2023-12-04T06:27:58;4.10;58.40
4578;DHT22;2301;47.354;8.528;2023-12-04T06:38:19;3.60;60.00
4578;DHT22;2301;47.354;8.528;2023-12-04T07:06:11;2.20;64.20
4578;DHT22;2301;47.354;8.528;2023-12-04T07:09:28;2.20;64.60
4578;DHT22;2301;47.354;8.528;2023-12-04T07:12:15;3.20;91.90
4578;DHT22;2301;47.354;8.528;2023-12-04T07:15:07;3.10;77.70
4578;DHT22;2301;47.354;8.528;2023-12-04T07:18:11;3.00;74.10
4578;DHT22;2301;47.354;8.528;2023-12-04T07:21:02;2.70;70.80
4578;DHT22;2301;47.354;8.528;2023-12-04T07:23:57;2.50;70.30
4578;DHT22;2301;47.354;8.528;2023-12-04T07:26:39;2.30;70.00
4578;DHT22;2301;47.354;8.528;2023-12-04T07:29:06;2.20;70.00
4578;DHT22;2301;47.354;8.528;2023-12-04T07:31:37;2.10;69.90
4578;DHT22;2301;47.354;8.528;2023-12-04T07:34:16;2.10;70.00
4578;DHT22;2301;47.354;8.528;2023-12-04T07:36:47;2.00;69.90
4578;DHT22;2301;47.354;8.528;2023-12-04T07:39:23;2.00;69.90
4578;DHT22;2301;47.354;8.528;2023-12-04T07:42:07;1.90;69.80
4578;DHT22;2301;47.354;8.528;2023-12-04T07:44:44;1.90;70.10
4578;DHT22;2301;47.354;8.528;2023-12-04T07:47:19;1.90;70.20
4578;DHT22;2301;47.354;8.528;2023-12-04T07:49:53;1.80;69.90
4578;DHT22;2301;47.354;8.528;2023-12-04T07:52:50;1.80;70.00
4578;DHT22;2301;47.354;8.528;2023-12-04T07:55:42;1.80;70.00
4578;DHT22;2301;47.354;8.528;2023-12-04T07:58:35;1.70;69.90
4578;DHT22;2301;47.354;8.528;2023-12-04T08:01:03;1.70;69.80
4578;DHT22;2301;47.354;8.528;2023-12-04T08:03:55;1.60;70.00
4578;DHT22;2301;47.354;8.528;2023-12-04T08:06:23;2.90;99.20
4578;DHT22;2301;47.354;8.528;2023-12-04T08:09:11;2.90;88.30
4578;DHT22;2301;47.354;8.528;2023-12-04T08:11:49;2.90;80.40
4578;DHT22;2301;47.354;8.528;2023-12-04T08:14:24;2.60;77.30
4578;DHT22;2301;47.354;8.528;2023-12-04T08:17:00;2.50;75.50
4578;DHT22;2301;47.354;8.528;2023-12-04T08:19:27;2.40;74.70
4578;DHT22;2301;47.354;8.528;2023-12-04T08:21:57;2.30;75.00
4578;DHT22;2301;47.354;8.528;2023-12-04T08:24:28;2.30;73.50
4578;DHT22;2301;47.354;8.528;2023-12-04T08:27:09;2.30;73.40
4578;DHT22;2301;47.354;8.528;2023-12-04T08:29:42;2.30;73.00
4578;DHT22;2301;47.354;8.528;2023-12-04T08:32:11;2.20;72.60
4578;DHT22;2301;47.354;8.528;2023-12-04T08:34:38;2.20;72.60
4578;DHT22;2301;47.354;8.528;2023-12-04T08:37:08;2.10;72.30
4578;DHT22;2301;47.354;8.528;2023-12-04T08:39:54;2.10;73.00
4578;DHT22;2301;47.354;8.528;2023-12-04T08:42:24;2.10;71.90
4578;DHT22;2301;47.354;8.528;2023-12-04T08:44:56;2.00;71.70
4578;DHT22;2301;47.354;8.528;2023-12-04T08:47:28;2.00;71.60
4578;DHT22;2301;47.354;8.528;2023-12-04T08:49:55;2.00;71.70
4578;DHT22;2301;47.354;8.528;2023-12-04T08:52:22;1.90;71.60
4578;DHT22;2301;47.354;8.528;2023-12-04T08:54:49;1.90;71.80
4578;DHT22;2301;47.354;8.528;2023-12-04T08:57:19;2.00;71.90
4578;DHT22;2301;47.354;8.528;2023-12-04T08:59:55;2.00;72.20
4578;DHT22;2301;47.354;8.528;2023-12-04T09:02:23;2.10;72.30
4578;DHT22;2301;47.354;8.528;2023-12-04T09:04:50;2.00;71.80
4578;DHT22;2301;47.354;8.528;2023-12-04T09:07:17;2.10;71.70
4578;DHT22;2301;47.354;8.528;2023-12-04T09:09:46;2.00;71.70
4578;DHT22;2301;47.354;8.528;2023-12-04T09:12:13;2.10;72.00
4578;DHT22;2301;47.354;8.528;2023-12-04T09:14:44;2.10;72.10
4578;DHT22;2301;47.354;8.528;2023-12-04T09:17:24;2.10;72.20
4578;DHT22;2301;47.354;8.528;2023-12-04T09:19:57;2.10;72.10
4578;DHT22;2301;47.354;8.528;2023-12-04T09:22:24;2.10;71.90
4578;DHT22;2301;47.354;8.528;2023-12-04T09:24:53;2.10;72.00
4578;DHT22;2301;47.354;8.528;2023-12-04T09:27:25;2.10;72.00
4578;DHT22;2301;47.354;8.528;2023-12-04T09:30:01;2.10;72.00
4578;DHT22;2301;47.354;8.528;2023-12-04T09:32:54;2.20;72.20
4578;DHT22;2301;47.354;8.528;2023-12-04T09:35:39;2.20;72.10
4578;DHT22;2301;47.354;8.528;2023-12-04T09:38:24;2.20;72.00
4578;DHT22;2301;47.354;8.528;2023-12-04T09:41:19;2.20;72.00
4578;DHT22;2301;47.354;8.528;2023-12-04T09:43:51;2.30;72.30
4578;DHT22;2301;47.354;8.528;2023-12-04T09:46:36;2.30;72.20
4578;DHT22;2301;47.354;8.528;2023-12-04T09:52:36;2.40;71.80
4578;DHT22;2301;47.354;8.528;2023-12-04T09:55:04;2.40;71.70
4578;DHT22;2301;47.354;8.528;2023-12-04T09:57:31;2.40;71.80
4578;DHT22;2301;47.354;8.528;2023-12-04T10:00:02;2.50;71.90
4578;DHT22;2301;47.354;8.528;2023-12-04T10:02:35;2.50;71.70
4578;DHT22;2301;47.354;8.528;2023-12-04T10:05:06;2.50;71.50
4578;DHT22;2301;47.354;8.528;2023-12-04T10:07:50;2.60;71.80
4578;DHT22;2301;47.354;8.528;2023-12-04T10:10:21;2.70;71.90
4578;DHT22;2301;47.354;8.528;2023-12-04T10:13:12;2.80;71.60
4578;DHT22;2301;47.354;8.528;2023-12-04T10:15:46;2.90;71.50
4578;DHT22;2301;47.354;8.528;2023-12-04T10:18:25;2.90;71.30
4578;DHT22;2301;47.354;8.528;2023-12-04T10:20:53;2.90;71.30
4578;DHT22;2301;47.354;8.528;2023-12-04T10:23:37;2.90;71.20
4578;DHT22;2301;47.354;8.528;2023-12-04T10:26:06;3.10;71.40
4578;DHT22;2301;47.354;8.528;2023-12-04T10:28:54;3.10;71.40
4578;DHT22;2301;47.354;8.528;2023-12-04T10:31:50;3.20;71.40
4578;DHT22;2301;47.354;8.528;2023-12-04T10:34:28;3.30;70.60
4578;DHT22;2301;47.354;8.528;2023-12-04T10:37:08;3.40;71.00
4578;DHT22;2301;47.354;8.528;2023-12-04T10:43:18;3.70;70.70
4578;DHT22;2301;47.354;8.528;2023-12-04T10:45:50;3.80;70.30
4578;DHT22;2301;47.354;8.528;2023-12-04T10:48:33;3.80;69.80
4578;DHT22;2301;47.354;8.528;2023-12-04T10:51:10;3.90;70.20
4578;DHT22;2301;47.354;8.528;2023-12-04T10:54:00;3.90;68.80
4578;DHT22;2301;47.354;8.528;2023-12-04T10:56:43;3.80;68.90
4578;DHT22;2301;47.354;8.528;2023-12-04T10:59:27;3.80;68.80
4578;DHT22;2301;47.354;8.528;2023-12-04T11:05:47;3.90;68.60
4578;DHT22;2301;47.354;8.528;2023-12-04T11:14:53;3.90;68.40
4578;DHT22;2301;47.354;8.528;2023-12-04T11:15:52;3.80;68.20
4578;DHT22;2301;47.354;8.528;2023-12-04T11:22:40;3.70;68.50
4578;DHT22;2301;47.354;8.528;2023-12-04T11:25:10;3.80;68.40
4578;DHT22;2301;47.354;8.528;2023-12-04T11:27:41;3.80;68.50
4578;DHT22;2301;47.354;8.528;2023-12-04T11:30:18;3.80;68.80
4578;DHT22;2301;47.354;8.528;2023-12-04T11:32:59;3.90;68.60
4578;DHT22;2301;47.354;8.528;2023-12-04T11:39:02;3.80;67.80
4578;DHT22;2301;47.354;8.528;2023-12-04T11:44:18;3.70;68.10
4578;DHT22;2301;47.354;8.528;2023-12-04T11:47:04;3.80;68.50
4578;DHT22;2301;47.354;8.528;2023-12-04T11:49:35;3.80;68.20
4578;DHT22;2301;47.354;8.528;2023-12-04T11:52:06;3.70;67.90
4578;DHT22;2301;47.354;8.528;2023-12-04T11:55:08;3.70;68.50
4578;DHT22;2301;47.354;8.528;2023-12-04T11:57:39;3.80;69.10
4578;DHT22;2301;47.354;8.528;2023-12-04T12:00:19;3.80;69.00
4578;DHT22;2301;47.354;8.528;2023-12-04T12:03:09;3.90;69.20
4578;DHT22;2301;47.354;8.528;2023-12-04T12:05:41;3.90;69.30
4578;DHT22;2301;47.354;8.528;2023-12-04T12:08:39;3.90;69.50
4578;DHT22;2301;47.354;8.528;2023-12-04T12:11:08;3.90;70.00
4578;DHT22;2301;47.354;8.528;2023-12-04T12:13:40;3.90;70.10
4578;DHT22;2301;47.354;8.528;2023-12-04T12:16:16;3.90;70.00
4578;DHT22;2301;47.354;8.528;2023-12-04T12:18:44;3.90;70.30
4578;DHT22;2301;47.354;8.528;2023-12-04T12:21:32;3.80;70.10
4578;DHT22;2301;47.354;8.528;2023-12-04T12:24:18;3.80;70.30
4578;DHT22;2301;47.354;8.528;2023-12-04T12:26:48;3.90;70.60
4578;DHT22;2301;47.354;8.528;2023-12-04T12:29:44;3.80;70.40
4578;DHT22;2301;47.354;8.528;2023-12-04T12:32:17;3.80;70.70
4578;DHT22;2301;47.354;8.528;2023-12-04T12:34:52;3.80;71.10
4578;DHT22;2301;47.354;8.528;2023-12-04T12:37:47;3.80;71.40
4578;DHT22;2301;47.354;8.528;2023-12-04T12:40:23;3.80;71.40
4578;DHT22;2301;47.354;8.528;2023-12-04T12:43:03;3.80;71.60
4578;DHT22;2301;47.354;8.528;2023-12-04T12:45:41;3.80;71.90
4578;DHT22;2301;47.354;8.528;2023-12-04T12:48:29;3.90;72.10
4578;DHT22;2301;47.354;8.528;2023-12-04T12:51:04;3.90;71.60
4578;DHT22;2301;47.354;8.528;2023-12-04T12:53:52;3.90;71.80
4578;DHT22;2301;47.354;8.528;2023-12-04T12:56:19;3.90;72.10
4578;DHT22;2301;47.354;8.528;2023-12-04T12:58:47;3.90;71.90
4578;DHT22;2301;47.354;8.528;2023-12-04T13:01:23;4.00;72.10
4578;DHT22;2301;47.354;8.528;2023-12-04T13:03:51;4.00;72.30
4578;DHT22;2301;47.354;8.528;2023-12-04T13:06:40;4.10;72.40
4578;DHT22;2301;47.354;8.528;2023-12-04T13:09:19;4.10;73.00
4578;DHT22;2301;47.354;8.528;2023-12-04T13:11:50;4.20;72.60
4578;DHT22;2301;47.354;8.528;2023-12-04T13:14:18;4.10;72.80
4578;DHT22;2301;47.354;8.528;2023-12-04T13:16:45;4.20;73.10
4578;DHT22;2301;47.354;8.528;2023-12-04T13:19:21;4.30;73.00
4578;DHT22;2301;47.354;8.528;2023-12-04T13:21:48;4.30;73.10
4578;DHT22;2301;47.354;8.528;2023-12-04T13:24:16;4.30;73.10
4578;DHT22;2301;47.354;8.528;2023-12-04T13:26:44;4.30;72.90
4578;DHT22;2301;47.354;8.528;2023-12-04T13:29:11;4.30;72.90
4578;DHT22;2301;47.354;8.528;2023-12-04T13:31:40;4.30;72.70
4578;DHT22;2301;47.354;8.528;2023-12-04T13:34:10;4.20;72.50
4578;DHT22;2301;47.354;8.528;2023-12-04T13:36:40;4.20;72.60
4578;DHT22;2301;47.354;8.528;2023-12-04T13:39:11;4.20;72.80
4578;DHT22;2301;47.354;8.528;2023-12-04T13:41:47;4.20;72.80
4578;DHT22;2301;47.354;8.528;2023-12-04T13:44:32;4.20;72.80
4578;DHT22;2301;47.354;8.528;2023-12-04T13:46:59;4.20;73.00
4578;DHT22;2301;47.354;8.528;2023-12-04T13:49:26;4.20;73.10
4578;DHT22;2301;47.354;8.528;2023-12-04T13:51:54;4.20;73.10
4578;DHT22;2301;47.354;8.528;2023-12-04T13:54:23;4.20;73.10
4578;DHT22;2301;47.354;8.528;2023-12-04T13:57:04;4.20;73.30
4578;DHT22;2301;47.354;8.528;2023-12-04T13:59:32;4.20;73.50
4578;DHT22;2301;47.354;8.528;2023-12-04T14:02:03;4.20;73.60
4578;DHT22;2301;47.354;8.528;2023-12-04T14:04:36;4.20;73.80
4578;DHT22;2301;47.354;8.528;2023-12-04T14:07:04;4.20;73.70
4578;DHT22;2301;47.354;8.528;2023-12-04T14:09:36;4.20;73.60
4578;DHT22;2301;47.354;8.528;2023-12-04T14:12:08;4.20;74.20
4578;DHT22;2301;47.354;8.528;2023-12-04T14:14:41;4.20;73.60
4578;DHT22;2301;47.354;8.528;2023-12-04T14:17:08;4.20;73.50
4578;DHT22;2301;47.354;8.528;2023-12-04T14:19:37;4.20;73.40
4578;DHT22;2301;47.354;8.528;2023-12-04T14:22:12;4.10;73.10
4578;DHT22;2301;47.354;8.528;2023-12-04T14:25:05;4.10;73.40
4578;DHT22;2301;47.354;8.528;2023-12-04T14:27:43;4.10;73.50
4578;DHT22;2301;47.354;8.528;2023-12-04T14:30:14;4.10;73.80
4578;DHT22;2301;47.354;8.528;2023-12-04T14:32:46;4.00;73.90
4578;DHT22;2301;47.354;8.528;2023-12-04T14:35:18;4.00;73.80
4578;DHT22;2301;47.354;8.528;2023-12-04T14:37:45;4.00;73.80
4578;DHT22;2301;47.354;8.528;2023-12-04T14:40:16;4.00;73.80
4578;DHT22;2301;47.354;8.528;2023-12-04T14:42:47;4.00;73.90
4578;DHT22;2301;47.354;8.528;2023-12-04T14:45:40;4.00;73.90
4578;DHT22;2301;47.354;8.528;2023-12-04T14:48:17;4.00;73.90
4578;DHT22;2301;47.354;8.528;2023-12-04T14:51:29;3.90;73.80
4578;DHT22;2301;47.354;8.528;2023-12-04T14:54:27;4.00;74.20
4578;DHT22;2301;47.354;8.528;2023-12-04T14:57:24;4.00;74.30
4578;DHT22;2301;47.354;8.528;2023-12-04T15:01:00;4.00;74.40
4578;DHT22;2301;47.354;8.528;2023-12-04T15:04:01;3.90;74.50
4578;DHT22;2301;47.354;8.528;2023-12-04T15:06:52;3.90;74.60
4578;DHT22;2301;47.354;8.528;2023-12-04T15:10:01;3.90;74.80
4578;DHT22;2301;47.354;8.528;2023-12-04T15:12:55;3.90;74.80
4578;DHT22;2301;47.354;8.528;2023-12-04T15:15:39;3.90;75.50
4578;DHT22;2301;47.354;8.528;2023-12-04T15:18:48;3.80;74.70
4578;DHT22;2301;47.354;8.528;2023-12-04T15:21:50;3.80;74.70
4578;DHT22;2301;47.354;8.528;2023-12-04T15:24:54;3.80;74.80
4578;DHT22;2301;47.354;8.528;2023-12-04T15:27:56;3.70;74.70
4578;DHT22;2301;47.354;8.528;2023-12-04T15:31:27;3.70;74.60
4578;DHT22;2301;47.354;8.528;2023-12-04T15:47:05;3.60;75.00
4578;DHT22;2301;47.354;8.528;2023-12-04T15:49:42;3.60;74.90
4578;DHT22;2301;47.354;8.528;2023-12-04T16:08:36;3.50;75.20
4578;DHT22;2301;47.354;8.528;2023-12-04T16:17:05;3.40;75.20
4578;DHT22;2301;47.354;8.528;2023-12-04T16:17:37;3.30;75.10
4578;DHT22;2301;47.354;8.528;2023-12-04T16:20:36;3.30;75.10
4578;DHT22;2301;47.354;8.528;2023-12-04T16:29:00;3.30;75.20
4578;DHT22;2301;47.354;8.528;2023-12-04T16:30:47;3.30;75.20
4578;DHT22;2301;47.354;8.528;2023-12-04T16:32:42;3.30;75.30
4578;DHT22;2301;47.354;8.528;2023-12-04T16:52:15;3.10;75.40
4578;DHT22;2301;47.354;8.528;2023-12-04T16:54:59;3.10;75.50
4578;DHT22;2301;47.354;8.528;2023-12-04T16:57:46;3.00;75.50
4578;DHT22;2301;47.354;8.528;2023-12-04T17:08:29;3.00;75.60
4578;DHT22;2301;47.354;8.528;2023-12-04T17:10:41;3.00;75.70
4578;DHT22;2301;47.354;8.528;2023-12-04T17:13:52;3.00;75.70
4578;DHT22;2301;47.354;8.528;2023-12-04T17:16:27;2.90;75.60
4578;DHT22;2301;47.354;8.528;2023-12-04T17:19:22;3.00;75.70
4578;DHT22;2301;47.354;8.528;2023-12-04T17:22:34;2.90;75.70
4578;DHT22;2301;47.354;8.528;2023-12-04T17:25:40;2.90;75.60
4578;DHT22;2301;47.354;8.528;2023-12-04T17:28:29;3.00;75.80
4578;DHT22;2301;47.354;8.528;2023-12-04T17:31:23;2.90;75.70
4578;DHT22;2301;47.354;8.528;2023-12-04T17:37:10;2.90;75.80
4578;DHT22;2301;47.354;8.528;2023-12-04T17:40:03;2.90;76.00
4578;DHT22;2301;47.354;8.528;2023-12-04T17:43:14;2.90;76.00
4578;DHT22;2301;47.354;8.528;2023-12-04T17:45:52;2.90;76.00
4578;DHT22;2301;47.354;8.528;2023-12-04T17:49:46;2.90;76.20
4578;DHT22;2301;47.354;8.528;2023-12-04T17:52:24;2.90;76.20
4578;DHT22;2301;47.354;8.528;2023-12-04T17:55:18;2.90;76.30
4578;DHT22;2301;47.354;8.528;2023-12-04T17:58:22;2.90;76.40
4578;DHT22;2301;47.354;8.528;2023-12-04T18:01:06;2.90;76.40
4578;DHT22;2301;47.354;8.528;2023-12-04T18:04:24;2.90;76.50
4578;DHT22;2301;47.354;8.528;2023-12-04T18:10:14;2.90;76.20
4578;DHT22;2301;47.354;8.528;2023-12-04T18:14:15;2.90;77.00
4578;DHT22;2301;47.354;8.528;2023-12-04T18:16:07;2.90;76.30
4578;DHT22;2301;47.354;8.528;2023-12-04T18:18:53;2.80;76.10
4578;DHT22;2301;47.354;8.528;2023-12-04T18:22:16;2.90;76.00
4578;DHT22;2301;47.354;8.528;2023-12-04T18:24:29;2.80;75.80
4578;DHT22;2301;47.354;8.528;2023-12-04T18:27:28;2.80;75.80
4578;DHT22;2301;47.354;8.528;2023-12-04T18:30:11;2.90;75.70
4578;DHT22;2301;47.354;8.528;2023-12-04T18:32:50;2.80;75.70
4578;DHT22;2301;47.354;8.528;2023-12-04T18:44:56;2.80;75.70
4578;DHT22;2301;47.354;8.528;2023-12-04T18:48:17;2.70;75.60
4578;DHT22;2301;47.354;8.528;2023-12-04T18:51:18;2.70;75.60
4578;DHT22;2301;47.354;8.528;2023-12-04T18:54:00;2.60;75.60
4578;DHT22;2301;47.354;8.528;2023-12-04T18:56:37;2.60;75.70
4578;DHT22;2301;47.354;8.528;2023-12-04T19:05:44;2.50;76.00
4578;DHT22;2301;47.354;8.528;2023-12-04T19:08:18;2.50;76.80
4578;DHT22;2301;47.354;8.528;2023-12-04T19:10:51;2.50;76.30
4578;DHT22;2301;47.354;8.528;2023-12-04T19:16:30;2.60;76.30
4578;DHT22;2301;47.354;8.528;2023-12-04T19:19:20;2.60;76.40
4578;DHT22;2301;47.354;8.528;2023-12-04T19:25:02;2.60;76.70
4578;DHT22;2301;47.354;8.528;2023-12-04T19:27:43;2.50;76.60
4578;DHT22;2301;47.354;8.528;2023-12-04T19:30:28;2.60;76.80
4578;DHT22;2301;47.354;8.528;2023-12-04T19:32:58;2.60;77.10
4578;DHT22;2301;47.354;8.528;2023-12-04T19:35:42;2.60;77.20
4578;DHT22;2301;47.354;8.528;2023-12-04T19:38:12;2.60;77.20
4578;DHT22;2301;47.354;8.528;2023-12-04T19:40:42;2.60;77.30